This is the latest recevied weather packets stored in our database for station/object K1LBG. If no packets are shown the sender has not sent any weather packets the latest 10 day(s).
| Time | Temp. | Humidity | Pressure | Rain* | Wind** | Luminosity | Snow |
|---|---|---|---|---|---|---|---|
| 1777435288 | 7.22° C | 84% | 1018.4 hPa | 0 mm | - | - | - |
| 1777433817 | 7.22° C | 85% | 1018.6 hPa | 0 mm | - | - | - |
| 1777432900 | 7.22° C | 84% | 1019 hPa | 0 mm | - | - | - |
| 1777432289 | 7.22° C | 85% | 1018.7 hPa | 0 mm | - | - | - |
| 1777431702 | 6.67° C | 85% | 1019 hPa | 0 mm | - | - | - |
| 1777430485 | 6.67° C | 85% | 1019.1 hPa | 0 mm | - | - | - |
| 1777426587 | 7.22° C | 82% | 1020 hPa | 0 mm | - | - | - |
| 1777422689 | 7.78° C | 76% | 1019.6 hPa | 0 mm | - | - | - |
| 1777422082 | 8.33° C | 73% | 1019.6 hPa | 0 mm | - | - | - |
| 1777421486 | 8.33° C | 72% | 1019.6 hPa | 0 mm | - | - | - |
| 1777421209 | 8.33° C | 71% | 1019.6 hPa | 0 mm | - | - | - |
| 1777420894 | 8.89° C | 70% | 1019.5 hPa | 0 mm | - | - | - |
| 1777420582 | 8.89° C | 69% | 1019.6 hPa | 0 mm | - | - | - |
| 1777420305 | 8.89° C | 68% | 1019.6 hPa | 0 mm | - | - | - |
| 1777418513 | 10° C | 65% | 1019.3 hPa | 0 mm | - | - | - |
| 1777417582 | 10.56° C | 62% | 1019.4 hPa | 0 mm | - | - | - |
| 1777416133 | 11.11° C | 60% | 1019.6 hPa | 0 mm | - | - | - |
| 1777415800 | 11.67° C | 58% | 1019.6 hPa | 0 mm | - | - | - |
| 1777411286 | 14.44° C | 45% | 1020.2 hPa | 0 mm | - | - | - |
| 1777408298 | 15.56° C | 47% | 1020.2 hPa | 0 mm | - | - | - |
| 1777407992 | 15.56° C | 46% | 1020.2 hPa | 0 mm | - | - | - |
| 1777405915 | 16.11° C | 47% | 1020.5 hPa | 0 mm | - | - | - |
| 1777401389 | 16.11° C | 48% | 1021 hPa | 0 mm | - | - | - |
| 1777399604 | 16.11° C | 52% | 1021.2 hPa | 0 mm | - | - | - |
| 1777397497 | 16.11° C | 52% | 1021.3 hPa | 0 mm | - | - | - |
* Rain latest hour (hover to see other rain measurements)
** Current wind speed in m/s (hover to see current wind gust speed)